Time;durP1;ratioP1;P1;durP2;ratioP2;P2;SDS_P1;SDS_P2;PMS_P1;PMS_P2;Temp;Humidity;BMP_temperature;BMP_pressure;BME280_temperature;BME280_humidity;BME280_pressure;Samples;Min_cycle;Max_cycle;Signal;HPM_P1;HPM_P2
2021/09/08 00:00:22;;;;;;;16.98;10.75;;;20.10;69.80;;;;;;5016075;28;20062;-74
2021/09/08 00:02:48;;;;;;;15.07;9.25;;;20.10;70.40;;;;;;5015206;28;20054;-74
2021/09/08 00:05:13;;;;;;;16.70;10.15;;;20.10;69.80;;;;;;5031538;28;20430;-74
2021/09/08 00:07:39;;;;;;;14.38;9.02;;;20.00;70.60;;;;;;4998126;28;20057;-74
2021/09/08 00:10:07;;;;;;;14.32;9.32;;;20.00;70.00;;;;;;5014827;28;20462;-74
2021/09/08 00:12:33;;;;;;;13.70;8.80;;;20.00;69.90;;;;;;5016040;28;20026;-75
2021/09/08 00:14:59;;;;;;;14.05;9.13;;;20.00;69.90;;;;;;5016147;28;20018;-74
2021/09/08 00:17:24;;;;;;;18.33;9.20;;;20.00;70.00;;;;;;5016031;28;20038;-75
2021/09/08 00:19:50;;;;;;;18.70;8.95;;;19.90;69.90;;;;;;5014913;28;20030;-75
2021/09/08 00:22:16;;;;;;;14.15;9.32;;;19.90;69.90;;;;;;5014323;28;20061;-75
2021/09/08 00:24:41;;;;;;;15.13;9.77;;;19.90;69.80;;;;;;5014858;28;20034;-76
2021/09/08 00:27:07;;;;;;;14.73;9.35;;;19.90;69.80;;;;;;5015979;28;20067;-75
2021/09/08 00:29:34;;;;;;;14.38;9.30;;;19.80;69.80;;;;;;5015778;28;20044;-76
2021/09/08 00:32:01;;;;;;;14.88;9.77;;;19.80;69.90;;;;;;5014088;28;20434;-75
2021/09/08 00:34:27;;;;;;;15.88;8.75;;;19.80;70.00;;;;;;5015773;28;20462;-76
2021/09/08 00:36:52;;;;;;;17.17;8.82;;;19.70;70.00;;;;;;5029844;28;20037;-75
2021/09/08 00:39:18;;;;;;;14.85;9.98;;;19.70;70.10;;;;;;5034553;28;20108;-76
2021/09/08 00:41:44;;;;;;;15.02;9.27;;;19.60;70.30;;;;;;5034408;28;20037;-75
2021/09/08 00:44:11;;;;;;;14.68;8.80;;;19.60;70.40;;;;;;5034729;28;20389;-76
2021/09/08 00:46:41;;;;;;;15.85;9.40;;;19.60;70.50;;;;;;5033617;28;20555;-74
2021/09/08 00:49:08;;;;;;;16.10;9.75;;;19.50;70.60;;;;;;5033551;28;20037;-74
2021/09/08 00:51:34;;;;;;;13.93;9.02;;;19.50;70.60;;;;;;5034542;28;20496;-74
2021/09/08 00:54:00;;;;;;;17.48;10.02;;;19.50;70.70;;;;;;5034988;28;20030;-74
2021/09/08 00:56:29;;;;;;;13.27;8.45;;;19.50;70.70;;;;;;5034986;28;20026;-74
2021/09/08 00:58:55;;;;;;;17.48;10.02;;;19.40;70.80;;;;;;5033624;28;20080;-74
2021/09/08 01:01:21;;;;;;;15.40;9.63;;;19.40;70.80;;;;;;5033634;28;20029;-74
2021/09/08 01:03:47;;;;;;;15.10;9.80;;;19.40;70.80;;;;;;5033356;28;20490;-74
2021/09/08 01:06:13;;;;;;;16.73;9.80;;;19.40;70.80;;;;;;5034646;28;20048;-74
2021/09/08 01:08:39;;;;;;;13.55;9.63;;;19.30;70.90;;;;;;5033304;28;20029;-74
2021/09/08 01:11:06;;;;;;;13.38;8.50;;;19.30;70.90;;;;;;5034466;28;20033;-74
2021/09/08 01:13:32;;;;;;;14.63;8.75;;;19.30;71.00;;;;;;5034443;28;20389;-74
2021/09/08 01:16:03;;;;;;;15.50;8.95;;;19.30;71.00;;;;;;5034438;28;20428;-74
2021/09/08 01:18:29;;;;;;;13.40;9.07;;;19.20;71.10;;;;;;5034268;28;20478;-74
2021/09/08 01:20:55;;;;;;;14.27;8.80;;;19.20;71.10;;;;;;5032123;28;20033;-74
2021/09/08 01:23:21;;;;;;;16.75;9.45;;;19.20;71.10;;;;;;5033089;28;20406;-74
2021/09/08 01:25:47;;;;;;;15.43;10.10;;;19.20;71.10;;;;;;5034782;28;20045;-74
2021/09/08 01:28:13;;;;;;;14.25;8.60;;;19.10;71.20;;;;;;5032891;28;20041;-74
2021/09/08 01:30:42;;;;;;;14.18;9.35;;;19.10;71.40;;;;;;5034407;28;20104;-74
2021/09/08 01:33:13;;;;;;;15.27;9.23;;;19.10;71.40;;;;;;5034447;28;20078;-74
2021/09/08 01:35:40;;;;;;;15.35;9.38;;;19.00;71.40;;;;;;5034065;28;20025;-75
2021/09/08 01:38:05;;;;;;;14.55;10.00;;;19.00;71.70;;;;;;5034203;28;20036;-74
2021/09/08 01:40:31;;;;;;;15.82;9.80;;;19.00;71.70;;;;;;5034351;28;20033;-74
2021/09/08 01:42:58;;;;;;;16.08;10.35;;;19.00;71.90;;;;;;5033865;28;20086;-75
2021/09/08 01:45:24;;;;;;;14.70;10.02;;;18.90;71.90;;;;;;5032919;28;20030;-74
2021/09/08 01:47:55;;;;;;;14.73;9.93;;;18.90;72.00;;;;;;5034378;28;20037;-76
2021/09/08 01:50:22;;;;;;;15.48;10.25;;;18.90;72.00;;;;;;5033830;28;20029;-76
2021/09/08 01:52:47;;;;;;;15.25;9.82;;;18.80;72.10;;;;;;5034351;28;20080;-76
2021/09/08 01:55:14;;;;;;;15.40;10.07;;;18.80;72.20;;;;;;5032693;28;20429;-75
2021/09/08 01:57:39;;;;;;;13.23;9.20;;;18.80;72.30;;;;;;5032759;28;20370;-76
2021/09/08 02:00:07;;;;;;;17.20;10.35;;;18.80;72.50;;;;;;5032719;28;20041;-76
2021/09/08 02:02:32;;;;;;;16.60;10.40;;;18.70;72.60;;;;;;5033814;28;20555;-75
2021/09/08 02:04:58;;;;;;;16.00;10.02;;;18.70;72.70;;;;;;5033844;28;20037;-74
2021/09/08 02:07:24;;;;;;;18.50;10.82;;;18.70;72.80;;;;;;5032354;28;20112;-74
2021/09/08 02:09:49;;;;;;;16.70;9.82;;;18.70;73.00;;;;;;5033414;28;20029;-76
2021/09/08 02:12:15;;;;;;;16.25;9.07;;;18.60;73.00;;;;;;5032492;28;20036;-76
2021/09/08 02:14:41;;;;;;;15.45;10.18;;;18.60;73.20;;;;;;5032759;28;20350;-75
2021/09/08 02:17:06;;;;;;;16.08;9.93;;;18.60;73.30;;;;;;5032288;28;20057;-75
2021/09/08 02:19:32;;;;;;;15.43;10.63;;;18.60;73.50;;;;;;5032317;28;20033;-75
2021/09/08 02:21:58;;;;;;;13.55;9.48;;;18.50;73.50;;;;;;5033426;28;20026;-75
2021/09/08 02:24:23;;;;;;;18.02;11.45;;;18.50;73.60;;;;;;5033695;28;20095;-75
2021/09/08 02:26:49;;;;;;;19.00;12.05;;;18.50;73.70;;;;;;5033591;28;20025;-75
2021/09/08 02:29:14;;;;;;;17.05;11.00;;;18.50;73.80;;;;;;5032224;28;20032;-75
2021/09/08 02:31:40;;;;;;;17.92;10.90;;;18.40;74.00;;;;;;5037596;28;20411;-75
2021/09/08 02:34:06;;;;;;;17.63;11.68;;;18.40;74.00;;;;;;5040180;28;20068;-75
2021/09/08 02:36:31;;;;;;;16.33;10.30;;;18.40;74.20;;;;;;5039000;28;20136;-75
2021/09/08 02:38:57;;;;;;;15.20;10.00;;;18.30;74.40;;;;;;5039909;28;20029;-75
2021/09/08 02:41:24;;;;;;;19.17;11.68;;;18.30;74.40;;;;;;5038542;28;20029;-75
2021/09/08 02:43:51;;;;;;;20.33;12.55;;;18.30;74.60;;;;;;5039953;28;20049;-75
2021/09/08 02:46:16;;;;;;;17.67;11.18;;;18.30;74.70;;;;;;5040103;28;20034;-77
2021/09/08 02:48:42;;;;;;;16.67;10.93;;;18.20;74.80;;;;;;5038810;28;20123;-76
2021/09/08 02:51:08;;;;;;;17.77;10.85;;;18.20;74.90;;;;;;5038843;28;20465;-76
2021/09/08 02:53:34;;;;;;;17.08;11.63;;;18.20;75.00;;;;;;5039926;28;20029;-76
2021/09/08 02:56:03;;;;;;;17.52;11.65;;;18.20;75.10;;;;;;5039917;28;20021;-76
2021/09/08 02:58:30;;;;;;;20.00;12.20;;;18.10;75.20;;;;;;5039639;28;20026;-76
2021/09/08 03:00:56;;;;;;;20.88;12.30;;;18.10;75.20;;;;;;5039742;28;20052;-76
2021/09/08 03:03:22;;;;;;;17.55;11.93;;;18.10;75.50;;;;;;5039902;28;20355;-75
2021/09/08 03:05:48;;;;;;;19.10;11.82;;;18.10;75.60;;;;;;5022582;28;20034;-75
2021/09/08 03:08:14;;;;;;;16.95;11.52;;;18.10;75.70;;;;;;5012731;28;20100;-75
2021/09/08 03:10:43;;;;;;;17.90;11.27;;;18.00;76.30;;;;;;5019241;28;20022;-76
2021/09/08 03:13:09;;;;;;;16.92;10.93;;;18.00;75.80;;;;;;5019638;28;20569;-76
2021/09/08 03:15:35;;;;;;;18.23;12.10;;;18.00;75.90;;;;;;5018266;28;20030;-75
2021/09/08 03:18:00;;;;;;;17.42;11.77;;;18.00;76.00;;;;;;5034802;28;20033;-75
2021/09/08 03:20:26;;;;;;;20.05;12.30;;;18.00;76.10;;;;;;5002004;28;20034;-76
2021/09/08 03:22:52;;;;;;;19.05;11.52;;;17.90;76.20;;;;;;5019288;28;20494;-76
2021/09/08 03:25:17;;;;;;;18.40;11.15;;;17.90;76.30;;;;;;5018316;28;20025;-76
2021/09/08 03:27:43;;;;;;;17.65;11.63;;;17.90;76.40;;;;;;5018348;28;20029;-76
2021/09/08 03:30:09;;;;;;;18.15;11.45;;;17.90;76.50;;;;;;5019557;28;20433;-75
2021/09/08 03:32:35;;;;;;;18.60;11.38;;;17.80;76.50;;;;;;5016412;28;20032;-76
2021/09/08 03:35:00;;;;;;;18.02;11.60;;;17.80;76.70;;;;;;5009703;28;20370;-76
2021/09/08 03:37:27;;;;;;;17.73;11.25;;;17.80;76.80;;;;;;5000301;28;20029;-75
2021/09/08 03:39:52;;;;;;;16.77;11.32;;;17.70;76.90;;;;;;5000061;28;20034;-75
2021/09/08 03:42:19;;;;;;;16.58;10.73;;;17.80;77.10;;;;;;4997965;28;20026;-76
2021/09/08 03:44:45;;;;;;;18.83;11.43;;;17.80;77.10;;;;;;4996685;28;20026;-76
2021/09/08 03:47:10;;;;;;;18.40;11.25;;;17.70;77.00;;;;;;5012208;28;20574;-76
2021/09/08 03:49:36;;;;;;;19.40;12.10;;;17.70;77.10;;;;;;4996968;28;20046;-76
2021/09/08 03:52:02;;;;;;;20.55;11.95;;;17.70;77.20;;;;;;4996964;28;20085;-75
2021/09/08 03:54:28;;;;;;;19.02;12.10;;;17.70;77.20;;;;;;4996691;28;20395;-75
2021/09/08 03:56:54;;;;;;;18.45;12.00;;;17.70;77.30;;;;;;4996965;28;20050;-73
2021/09/08 03:59:21;;;;;;;17.45;11.57;;;17.60;77.40;;;;;;5011732;28;20034;-76
2021/09/08 04:01:47;;;;;;;18.27;12.07;;;17.60;77.60;;;;;;4996689;28;20018;-76
2021/09/08 04:04:13;;;;;;;18.73;11.93;;;17.60;77.70;;;;;;4996394;28;20026;-73
2021/09/08 04:06:39;;;;;;;17.58;12.35;;;17.60;77.80;;;;;;5011307;28;20034;-74
2021/09/08 04:09:04;;;;;;;17.77;12.25;;;17.50;77.80;;;;;;4996580;28;20026;-73
2021/09/08 04:11:30;;;;;;;18.35;12.13;;;17.50;78.00;;;;;;4996340;28;20038;-75
2021/09/08 04:13:56;;;;;;;18.67;12.30;;;17.50;78.10;;;;;;4996727;28;20455;-75
2021/09/08 04:16:22;;;;;;;19.05;12.57;;;17.50;78.10;;;;;;4996618;28;20034;-74
2021/09/08 04:18:47;;;;;;;19.77;12.13;;;17.50;78.30;;;;;;5001491;28;20386;-73
2021/09/08 04:21:13;;;;;;;16.75;11.52;;;17.40;78.40;;;;;;5015189;28;20021;-73
2021/09/08 04:23:39;;;;;;;19.15;12.13;;;17.40;78.40;;;;;;5013752;28;20053;-73
2021/09/08 04:26:04;;;;;;;19.02;12.80;;;17.40;78.60;;;;;;5015386;28;20026;-74
2021/09/08 04:28:30;;;;;;;17.92;12.18;;;17.40;78.70;;;;;;5015353;28;20030;-73
2021/09/08 04:30:56;;;;;;;19.75;13.07;;;17.30;78.70;;;;;;5030657;28;20092;-73
2021/09/08 04:33:21;;;;;;;17.85;11.70;;;17.30;78.90;;;;;;5014016;28;20029;-75
2021/09/08 04:35:47;;;;;;;18.88;13.38;;;17.30;79.00;;;;;;5015302;28;20030;-74
2021/09/08 04:38:13;;;;;;;21.40;12.60;;;17.30;79.00;;;;;;5015138;28;20084;-74
2021/09/08 04:40:38;;;;;;;20.90;12.85;;;17.20;79.70;;;;;;5015180;28;20371;-74
2021/09/08 04:43:04;;;;;;;18.75;12.65;;;17.20;79.20;;;;;;5014145;28;20101;-75
2021/09/08 04:45:30;;;;;;;17.60;12.90;;;17.20;79.40;;;;;;5013864;28;20505;-75
2021/09/08 04:47:55;;;;;;;17.55;12.27;;;17.20;79.60;;;;;;5013652;28;20041;-76
2021/09/08 04:50:42;;;;;;;20.60;12.27;;;17.20;79.70;;;;;;5014907;28;20484;-76
2021/09/08 04:53:07;;;;;;;20.45;13.48;;;17.10;79.70;;;;;;5013952;28;20396;-75
2021/09/08 04:55:34;;;;;;;18.65;12.77;;;17.10;79.80;;;;;;5014619;28;20025;-74
2021/09/08 04:57:59;;;;;;;21.38;13.00;;;17.10;80.00;;;;;;5015014;28;20129;-74
2021/09/08 05:00:25;;;;;;;17.95;13.15;;;17.10;80.20;;;;;;5012631;28;20030;-75
2021/09/08 05:02:51;;;;;;;20.35;14.07;;;17.00;80.20;;;;;;5008996;28;20118;-75
2021/09/08 05:05:17;;;;;;;20.05;13.32;;;17.00;80.30;;;;;;5014529;28;20030;-75
2021/09/08 05:07:42;;;;;;;20.73;14.02;;;17.00;80.40;;;;;;5012040;28;20141;-75
2021/09/08 05:10:09;;;;;;;20.73;12.55;;;17.00;80.50;;;;;;5006209;28;20102;-74
2021/09/08 05:12:34;;;;;;;19.50;13.25;;;17.00;80.60;;;;;;5017279;28;20115;-73
2021/09/08 05:15:00;;;;;;;19.88;12.75;;;17.00;80.60;;;;;;5013365;28;20092;-74
2021/09/08 05:17:26;;;;;;;21.20;13.35;;;17.00;80.80;;;;;;5013383;28;20026;-74
2021/09/08 05:19:52;;;;;;;19.23;13.57;;;16.90;80.70;;;;;;5013818;28;20040;-75
2021/09/08 05:22:18;;;;;;;20.02;14.00;;;16.90;80.70;;;;;;5014381;28;20046;-74
2021/09/08 05:24:43;;;;;;;20.67;14.05;;;17.00;81.00;;;;;;5014414;28;20413;-75
2021/09/08 05:27:09;;;;;;;23.83;14.27;;;17.00;80.90;;;;;;5013084;28;20080;-75
2021/09/08 05:29:34;;;;;;;18.23;13.43;;;17.00;81.10;;;;;;5029428;28;20041;-75
2021/09/08 05:32:00;;;;;;;21.40;13.85;;;17.00;81.10;;;;;;5012908;28;20037;-75
2021/09/08 05:34:26;;;;;;;20.33;13.65;;;16.90;81.10;;;;;;5014226;28;20344;-76
2021/09/08 05:36:51;;;;;;;22.23;13.98;;;17.00;81.30;;;;;;5014066;28;20029;-75
2021/09/08 05:39:17;;;;;;;21.77;13.57;;;17.00;81.30;;;;;;5014131;28;20109;-75
2021/09/08 05:41:42;;;;;;;20.35;13.23;;;17.00;81.40;;;;;;5014070;28;20057;-75
2021/09/08 05:44:08;;;;;;;22.73;15.27;;;17.00;81.60;;;;;;5011056;28;20026;-75
2021/09/08 05:46:34;;;;;;;19.60;14.43;;;17.00;81.60;;;;;;5013523;28;20042;-75
2021/09/08 05:48:59;;;;;;;20.92;13.52;;;16.90;81.60;;;;;;5013642;28;20077;-77
2021/09/08 05:51:25;;;;;;;21.50;14.23;;;17.00;81.80;;;;;;5013133;28;20475;-75
2021/09/08 05:53:50;;;;;;;21.67;14.32;;;17.00;81.80;;;;;;5013458;28;20096;-74
2021/09/08 05:56:16;;;;;;;21.90;13.88;;;17.10;81.90;;;;;;5013452;28;20129;-74
2021/09/08 05:58:42;;;;;;;21.15;13.32;;;17.00;81.90;;;;;;5013710;28;20033;-75
2021/09/08 06:01:07;;;;;;;21.08;14.20;;;17.00;82.00;;;;;;4995575;28;20412;-74
2021/09/08 06:03:33;;;;;;;20.98;14.05;;;17.10;82.10;;;;;;5022774;28;20470;-74
2021/09/08 06:05:58;;;;;;;21.70;14.07;;;17.10;82.20;;;;;;5011253;28;20033;-75
2021/09/08 06:08:24;;;;;;;20.92;14.70;;;17.10;82.20;;;;;;5013537;28;20026;-75
2021/09/08 06:10:50;;;;;;;23.20;13.98;;;17.10;82.20;;;;;;5012798;28;20082;-75
2021/09/08 06:13:16;;;;;;;20.85;14.18;;;17.10;82.30;;;;;;5012738;28;20037;-75
2021/09/08 06:15:42;;;;;;;22.73;15.68;;;17.20;82.40;;;;;;5011668;28;20113;-75
2021/09/08 06:18:08;;;;;;;22.65;14.27;;;17.20;82.40;;;;;;5010872;28;20390;-74
2021/09/08 06:20:33;;;;;;;22.27;15.02;;;17.20;82.40;;;;;;5009720;28;20405;-75
2021/09/08 06:23:00;;;;;;;19.90;13.60;;;17.30;82.40;;;;;;5002581;28;20575;-74
2021/09/08 06:25:26;;;;;;;18.48;13.57;;;17.30;82.40;;;;;;4993378;28;20446;-74
2021/09/08 06:27:52;;;;;;;20.52;13.73;;;17.30;82.40;;;;;;4997082;28;20390;-74
2021/09/08 06:30:17;;;;;;;23.80;13.80;;;17.30;82.40;;;;;;5012199;28;20040;-74
2021/09/08 06:32:43;;;;;;;22.35;14.60;;;17.40;83.10;;;;;;5012056;28;20038;-75
2021/09/08 06:35:09;;;;;;;19.65;13.55;;;17.40;82.40;;;;;;5013239;28;20036;-73
2021/09/08 06:37:34;;;;;;;23.73;14.13;;;17.40;82.40;;;;;;5011983;28;20113;-74
2021/09/08 06:40:00;;;;;;;20.20;14.45;;;17.50;82.50;;;;;;5011776;28;20042;-75
2021/09/08 06:42:26;;;;;;;23.25;14.38;;;17.50;82.40;;;;;;5012090;28;20561;-75
2021/09/08 06:44:55;;;;;;;21.20;15.02;;;17.50;82.30;;;;;;5013174;28;20037;-75
2021/09/08 06:47:21;;;;;;;21.08;13.65;;;17.50;82.30;;;;;;5011918;28;20044;-75
2021/09/08 06:49:48;;;;;;;19.63;13.93;;;17.60;82.20;;;;;;5013005;28;20025;-74
2021/09/08 06:52:14;;;;;;;25.17;14.57;;;17.60;82.20;;;;;;5013015;28;20036;-77
2021/09/08 06:54:40;;;;;;;21.70;12.50;;;17.70;82.20;;;;;;5012950;28;20026;-74
2021/09/08 06:57:05;;;;;;;19.92;13.43;;;17.70;82.10;;;;;;5012635;28;20112;-75
2021/09/08 06:59:31;;;;;;;18.35;12.48;;;17.70;81.90;;;;;;4995234;28;20111;-75
2021/09/08 07:01:58;;;;;;;21.58;13.90;;;17.80;81.80;;;;;;5009465;28;20038;-75
2021/09/08 07:04:24;;;;;;;18.30;13.15;;;17.80;81.70;;;;;;5012384;28;20034;-74
2021/09/08 07:06:50;;;;;;;19.00;11.85;;;17.90;81.60;;;;;;5012189;28;20080;-74
2021/09/08 07:09:16;;;;;;;20.30;13.10;;;17.90;81.50;;;;;;5019874;28;20043;-74
2021/09/08 07:11:41;;;;;;;17.98;12.77;;;17.90;81.40;;;;;;4994816;28;20022;-74
2021/09/08 07:14:07;;;;;;;20.52;11.88;;;18.00;81.30;;;;;;5012384;28;20359;-74
2021/09/08 07:16:33;;;;;;;23.83;12.38;;;18.10;81.20;;;;;;5012307;28;20026;-74
2021/09/08 07:18:58;;;;;;;16.77;11.88;;;18.10;81.10;;;;;;5013551;28;20056;-74
2021/09/08 07:21:24;;;;;;;19.88;11.90;;;18.10;81.00;;;;;;5015107;28;20367;-74
2021/09/08 07:23:50;;;;;;;19.98;11.52;;;18.20;80.90;;;;;;5015006;28;20100;-75
2021/09/08 07:26:15;;;;;;;20.63;12.55;;;18.20;80.70;;;;;;5015189;28;20032;-74
2021/09/08 07:28:41;;;;;;;18.35;11.95;;;18.30;80.70;;;;;;5016324;28;20394;-75
2021/09/08 07:31:07;;;;;;;16.13;11.05;;;18.30;80.50;;;;;;5016669;28;20026;-75
2021/09/08 07:33:32;;;;;;;17.20;11.38;;;18.40;80.50;;;;;;5010163;28;20121;-74
2021/09/08 07:35:58;;;;;;;22.25;12.57;;;18.40;80.50;;;;;;5015571;28;20038;-74
2021/09/08 07:38:25;;;;;;;19.63;12.07;;;18.50;80.50;;;;;;5031856;28;20030;-74
2021/09/08 07:40:51;;;;;;;16.73;11.35;;;18.50;80.40;;;;;;5016560;28;20037;-74
2021/09/08 07:43:18;;;;;;;16.50;10.85;;;18.50;80.30;;;;;;4995981;28;20026;-74
2021/09/08 07:45:45;;;;;;;16.92;11.85;;;18.60;80.10;;;;;;5011706;28;20030;-74
2021/09/08 07:48:10;;;;;;;17.40;11.60;;;18.70;80.00;;;;;;5025476;28;20032;-74
2021/09/08 07:50:37;;;;;;;17.95;12.75;;;18.70;79.80;;;;;;5007538;28;20037;-75
2021/09/08 07:53:04;;;;;;;17.70;10.85;;;18.80;79.50;;;;;;5001116;28;20019;-74
2021/09/08 07:55:30;;;;;;;16.42;10.73;;;18.80;79.50;;;;;;5020422;28;20501;-75
2021/09/08 07:57:56;;;;;;;15.73;10.88;;;18.90;79.30;;;;;;5010244;28;20108;-75
2021/09/08 08:00:22;;;;;;;16.70;11.05;;;18.90;79.20;;;;;;5005047;28;20034;-75
2021/09/08 08:02:49;;;;;;;16.45;11.18;;;19.00;79.10;;;;;;5014020;28;20092;-74
2021/09/08 08:05:15;;;;;;;16.55;10.90;;;19.00;78.90;;;;;;5009644;28;20036;-75
2021/09/08 08:07:46;;;;;;;18.75;11.57;;;19.10;78.70;;;;;;5015873;28;20482;-74
2021/09/08 08:10:12;;;;;;;17.95;11.50;;;19.20;78.70;;;;;;5015842;28;20076;-75
2021/09/08 08:12:38;;;;;;;16.65;12.27;;;19.20;78.50;;;;;;5015859;28;20477;-74
2021/09/08 08:15:06;;;;;;;25.80;11.70;;;19.30;78.30;;;;;;5031776;28;20034;-77
2021/09/08 08:17:32;;;;;;;16.52;11.15;;;19.30;78.10;;;;;;5015069;28;20026;-76
2021/09/08 08:19:58;;;;;;;15.93;11.40;;;19.40;78.10;;;;;;5015678;28;20040;-77
2021/09/08 08:22:24;;;;;;;16.95;11.38;;;19.40;77.90;;;;;;5015865;28;20490;-76
2021/09/08 08:24:51;;;;;;;17.35;10.43;;;19.50;78.50;;;;;;5014564;28;20096;-75
2021/09/08 08:27:19;;;;;;;19.50;11.93;;;19.50;77.80;;;;;;5029575;28;20042;-76
2021/09/08 08:29:45;;;;;;;15.95;10.73;;;19.60;77.70;;;;;;5000688;28;20045;-76
2021/09/08 08:32:10;;;;;;;16.42;11.75;;;19.70;77.60;;;;;;5016104;28;20029;-76
2021/09/08 08:34:36;;;;;;;17.83;13.38;;;19.70;77.40;;;;;;5014564;28;20037;-75
2021/09/08 08:37:02;;;;;;;19.52;11.68;;;19.80;77.20;;;;;;5011876;28;20030;-77
2021/09/08 08:39:28;;;;;;;16.25;11.52;;;19.90;77.10;;;;;;5012216;28;20080;-75
2021/09/08 08:41:56;;;;;;;14.93;11.10;;;20.00;77.10;;;;;;5014281;28;20022;-76
2021/09/08 08:44:26;;;;;;;16.65;10.85;;;20.10;77.00;;;;;;4981407;28;20037;-75
2021/09/08 08:46:53;;;;;;;19.65;12.05;;;20.20;76.90;;;;;;5015355;28;20045;-75
2021/09/08 08:49:24;;;;;;;16.85;12.10;;;20.20;77.40;;;;;;5015741;28;20084;-75
2021/09/08 08:51:50;;;;;;;16.38;11.40;;;20.30;76.70;;;;;;5013814;28;20056;-75
2021/09/08 08:54:16;;;;;;;17.27;11.65;;;20.40;76.60;;;;;;5014627;28;20069;-76
2021/09/08 08:56:41;;;;;;;17.23;12.05;;;20.50;76.50;;;;;;5015272;28;20153;-76
2021/09/08 08:59:07;;;;;;;19.55;11.75;;;20.60;76.60;;;;;;5015085;28;20068;-75
2021/09/08 09:01:33;;;;;;;19.15;11.63;;;20.70;76.40;;;;;;5030239;28;20489;-76
2021/09/08 09:04:06;;;;;;;16.58;10.80;;;20.80;76.30;;;;;;5014963;28;20034;-77
2021/09/08 09:06:33;;;;;;;14.13;9.75;;;20.90;76.20;;;;;;5015395;28;20386;-76
2021/09/08 09:09:06;;;;;;;16.27;11.10;;;21.00;76.10;;;;;;5014088;28;20482;-76
2021/09/08 09:11:33;;;;;;;14.25;10.13;;;21.10;75.90;;;;;;5016516;28;20030;-77
2021/09/08 09:14:01;;;;;;;13.15;9.48;;;21.20;75.70;;;;;;5013916;28;20044;-77
2021/09/08 09:16:27;;;;;;;12.95;9.52;;;21.30;75.30;;;;;;5014708;28;20026;-77
2021/09/08 09:18:54;;;;;;;14.75;9.07;;;21.40;74.70;;;;;;5014165;28;20053;-77
2021/09/08 09:21:23;;;;;;;13.50;9.00;;;21.50;74.10;;;;;;5014198;28;20466;-78
2021/09/08 09:23:51;;;;;;;15.60;10.20;;;21.60;73.70;;;;;;5014653;28;20386;-77
2021/09/08 09:26:27;;;;;;;12.70;8.88;;;21.70;73.10;;;;;;5013246;28;20041;-78
2021/09/08 09:29:03;;;;;;;17.92;10.02;;;21.80;72.60;;;;;;5013510;28;20034;-75
2021/09/08 09:31:29;;;;;;;16.77;9.30;;;22.00;72.10;;;;;;5013520;28;20033;-77
2021/09/08 09:33:56;;;;;;;17.92;9.40;;;22.00;71.90;;;;;;5014509;28;20038;-77
2021/09/08 09:36:25;;;;;;;14.60;9.13;;;22.20;71.70;;;;;;5012789;28;20076;-77
2021/09/08 09:38:53;;;;;;;13.95;8.80;;;22.20;71.40;;;;;;5014347;28;20030;-79
2021/09/08 09:41:37;;;;;;;12.52;9.02;;;22.30;71.10;;;;;;5013422;28;20026;-79
2021/09/08 09:44:14;;;;;;;14.60;9.30;;;22.50;70.60;;;;;;5013539;28;20068;-77
2021/09/08 09:46:41;;;;;;;14.00;9.00;;;22.60;70.30;;;;;;5012733;28;20108;-77
2021/09/08 09:49:07;;;;;;;14.18;9.40;;;22.60;69.90;;;;;;5014081;28;20037;-77
2021/09/08 09:51:32;;;;;;;14.63;8.57;;;22.70;69.60;;;;;;5013735;28;20370;-76
2021/09/08 09:53:59;;;;;;;14.35;8.90;;;22.80;69.50;;;;;;5014311;28;20040;-77
2021/09/08 09:56:24;;;;;;;14.23;8.55;;;22.90;69.40;;;;;;5014083;28;20030;-77
2021/09/08 09:58:51;;;;;;;13.90;8.70;;;23.00;69.10;;;;;;5012942;28;20076;-77
2021/09/08 10:01:18;;;;;;;13.68;8.48;;;23.10;68.80;;;;;;5012675;28;20034;-78
2021/09/08 10:03:44;;;;;;;11.98;7.85;;;23.20;68.40;;;;;;5014134;28;20531;-76
2021/09/08 10:06:10;;;;;;;12.73;8.88;;;23.40;67.90;;;;;;5014001;28;20026;-77
2021/09/08 10:08:43;;;;;;;11.88;7.72;;;23.70;67.30;;;;;;5012516;28;20386;-77
2021/09/08 10:11:12;;;;;;;10.73;8.02;;;24.00;66.40;;;;;;5012123;28;20388;-77
2021/09/08 10:13:45;;;;;;;10.43;7.05;;;24.50;66.70;;;;;;5013521;28;20032;-77
2021/09/08 10:16:11;;;;;;;11.70;7.53;;;25.00;65.50;;;;;;5013636;28;20034;-76
2021/09/08 10:18:40;;;;;;;13.88;7.80;;;25.50;65.60;;;;;;5013447;28;20390;-77
2021/09/08 10:21:11;;;;;;;13.48;7.53;;;26.20;65.20;;;;;;5012292;28;20080;-79
2021/09/08 10:23:43;;;;;;;12.10;7.03;;;26.90;64.10;;;;;;5019616;28;20068;-79
2021/09/08 10:26:17;;;;;;;12.05;7.07;;;27.80;62.90;;;;;;5016243;28;20068;-77
2021/09/08 10:28:44;;;;;;;11.07;6.30;;;28.60;61.40;;;;;;5013369;28;20072;-76
2021/09/08 10:31:13;;;;;;;10.38;6.63;;;29.50;60.30;;;;;;5011963;28;20056;-77
2021/09/08 10:33:40;;;;;;;11.98;6.32;;;30.20;58.40;;;;;;5020095;28;20017;-77
2021/09/08 10:36:10;;;;;;;10.65;6.68;;;30.80;55.60;;;;;;5015279;28;20376;-79
2021/09/08 10:38:35;;;;;;;9.20;6.82;;;31.60;54.40;;;;;;5012107;28;20080;-77
2021/09/08 10:41:06;;;;;;;8.43;6.22;;;32.30;53.40;;;;;;5015803;28;20038;-76
2021/09/08 10:43:37;;;;;;;7.85;6.35;;;32.90;51.40;;;;;;5013109;28;20029;-76
2021/09/08 10:46:05;;;;;;;8.52;6.60;;;33.60;50.10;;;;;;5028593;28;20038;-75
2021/09/08 10:48:35;;;;;;;8.15;6.55;;;34.20;49.40;;;;;;5012069;28;20112;-76
2021/09/08 10:51:01;;;;;;;8.40;6.05;;;34.80;48.00;;;;;;5028706;28;20095;-76
2021/09/08 10:53:28;;;;;;;9.48;6.57;;;35.30;47.00;;;;;;5016950;28;20538;-76
2021/09/08 10:55:55;;;;;;;8.25;6.07;;;35.80;45.40;;;;;;5017557;28;20030;-77
2021/09/08 10:58:21;;;;;;;11.57;6.72;;;36.20;44.50;;;;;;5017061;28;20473;-77
2021/09/08 11:00:49;;;;;;;11.43;6.07;;;36.50;43.20;;;;;;5017265;28;20061;-78
2021/09/08 11:03:15;;;;;;;8.38;6.47;;;36.90;42.50;;;;;;5017391;28;20026;-77
2021/09/08 11:05:56;;;;;;;10.25;6.50;;;37.20;41.80;;;;;;5017452;28;20037;-80
2021/09/08 11:08:32;;;;;;;8.07;6.72;;;37.50;40.50;;;;;;5017272;28;20109;-76
2021/09/08 11:11:24;;;;;;;8.90;7.40;;;37.70;40.60;;;;;;5015641;28;20374;-76
2021/09/08 11:13:56;;;;;;;7.57;6.70;;;38.10;39.40;;;;;;5017226;28;20445;-77
2021/09/08 11:16:29;;;;;;;9.77;6.03;;;38.40;40.00;;;;;;5015689;28;20018;-76
2021/09/08 11:19:00;;;;;;;9.07;6.03;;;38.70;39.70;;;;;;5017304;28;20021;-80
2021/09/08 11:21:30;;;;;;;7.40;5.97;;;39.10;39.30;;;;;;5019920;28;20021;-79
2021/09/08 11:24:04;;;;;;;10.98;5.85;;;39.40;38.50;;;;;;5036395;28;20053;-78
2021/09/08 11:26:32;;;;;;;8.35;6.05;;;39.70;37.40;;;;;;5036814;28;20469;-77
2021/09/08 11:29:04;;;;;;;7.65;5.75;;;39.80;37.10;;;;;;5036294;28;20390;-76
2021/09/08 11:31:44;;;;;;;8.35;5.97;;;40.00;37.40;;;;;;5016570;28;20026;-75
2021/09/08 11:34:27;;;;;;;6.60;4.78;;;40.10;36.00;;;;;;5016599;28;20022;-75
2021/09/08 11:36:55;;;;;;;6.18;5.20;;;40.40;35.10;;;;;;5015380;28;20014;-75
2021/09/08 11:39:21;;;;;;;8.10;5.93;;;40.50;35.50;;;;;;5016959;28;20029;-77
2021/09/08 11:41:59;;;;;;;6.43;4.90;;;40.60;35.50;;;;;;5016623;28;20037;-78
2021/09/08 11:44:25;;;;;;;7.35;5.63;;;40.90;34.80;;;;;;5016032;28;20037;-76
2021/09/08 11:46:51;;;;;;;5.47;4.32;;;41.00;34.30;;;;;;5010441;28;20030;-77
2021/09/08 11:49:17;;;;;;;6.82;5.32;;;41.10;34.10;;;;;;5013937;28;20110;-77
2021/09/08 11:51:45;;;;;;;8.23;4.63;;;41.10;34.10;;;;;;5015975;28;20029;-78
2021/09/08 11:54:15;;;;;;;6.88;5.75;;;40.90;34.20;;;;;;5030792;28;20049;-76
2021/09/08 11:56:41;;;;;;;6.82;4.72;;;40.60;34.30;;;;;;5016039;28;20028;-76
2021/09/08 11:59:07;;;;;;;6.57;4.72;;;40.30;34.40;;;;;;5015837;28;20108;-76
2021/09/08 12:01:41;;;;;;;6.78;5.20;;;40.10;34.50;;;;;;5004970;28;20086;-76
2021/09/08 12:04:09;;;;;;;7.55;5.57;;;39.90;34.50;;;;;;5014875;28;20028;-76
2021/09/08 12:06:57;;;;;;;7.68;5.40;;;39.70;34.50;;;;;;5015838;28;20025;-76
2021/09/08 12:09:28;;;;;;;8.40;5.55;;;39.60;34.70;;;;;;5014291;28;20033;-77
2021/09/08 12:11:56;;;;;;;7.47;5.47;;;39.40;34.90;;;;;;5014222;28;20029;-78
2021/09/08 12:14:39;;;;;;;7.50;4.72;;;39.30;35.00;;;;;;5015472;28;20021;-79
2021/09/08 12:17:27;;;;;;;6.72;5.13;;;39.20;34.90;;;;;;5014166;28;20034;-78
2021/09/08 12:19:57;;;;;;;6.55;5.43;;;39.20;35.20;;;;;;5014291;28;20057;-76
2021/09/08 12:22:25;;;;;;;7.88;5.75;;;39.10;35.40;;;;;;5015335;28;20021;-78
2021/09/08 12:24:55;;;;;;;9.38;5.70;;;39.10;35.40;;;;;;5015175;28;20464;-75
2021/09/08 12:27:28;;;;;;;7.13;5.53;;;39.00;35.20;;;;;;5015499;28;20439;-79
2021/09/08 12:30:05;;;;;;;6.15;5.22;;;39.00;34.90;;;;;;5014179;28;20362;-78
2021/09/08 12:32:47;;;;;;;6.53;5.13;;;38.90;34.70;;;;;;5006818;28;20503;-78